sensor_id;sensor_type;location;lat;lon;timestamp;temperature;humidity
37910;DHT22;23741;49.446;8.754;2023-09-30T00:02:02;21.10;64.80
37910;DHT22;23741;49.446;8.754;2023-09-30T00:04:39;21.00;64.70
37910;DHT22;23741;49.446;8.754;2023-09-30T00:07:13;21.00;64.80
37910;DHT22;23741;49.446;8.754;2023-09-30T00:13:30;21.00;65.70
37910;DHT22;23741;49.446;8.754;2023-09-30T00:16:32;21.00;64.70
37910;DHT22;23741;49.446;8.754;2023-09-30T00:21:48;20.90;64.40
37910;DHT22;23741;49.446;8.754;2023-09-30T00:24:26;20.90;64.30
37910;DHT22;23741;49.446;8.754;2023-09-30T00:36:44;20.80;64.30
37910;DHT22;23741;49.446;8.754;2023-09-30T00:39:13;20.80;64.40
37910;DHT22;23741;49.446;8.754;2023-09-30T00:41:23;20.80;64.50
37910;DHT22;23741;49.446;8.754;2023-09-30T00:46:55;20.70;64.80
37910;DHT22;23741;49.446;8.754;2023-09-30T00:49:09;20.70;64.80
37910;DHT22;23741;49.446;8.754;2023-09-30T00:51:47;20.60;64.50
37910;DHT22;23741;49.446;8.754;2023-09-30T00:57:23;20.50;64.80
37910;DHT22;23741;49.446;8.754;2023-09-30T01:03:06;20.50;64.70
37910;DHT22;23741;49.446;8.754;2023-09-30T01:05:17;20.50;65.20
37910;DHT22;23741;49.446;8.754;2023-09-30T01:07:30;20.50;65.40
37910;DHT22;23741;49.446;8.754;2023-09-30T01:10:10;20.40;65.60
37910;DHT22;23741;49.446;8.754;2023-09-30T01:12:52;20.40;65.30
37910;DHT22;23741;49.446;8.754;2023-09-30T01:15:07;20.40;65.30
37910;DHT22;23741;49.446;8.754;2023-09-30T01:17:45;20.40;65.30
37910;DHT22;23741;49.446;8.754;2023-09-30T01:27:10;20.30;65.50
37910;DHT22;23741;49.446;8.754;2023-09-30T01:30:36;20.30;65.80
37910;DHT22;23741;49.446;8.754;2023-09-30T01:33:38;20.30;65.60
37910;DHT22;23741;49.446;8.754;2023-09-30T01:36:29;20.30;65.50
37910;DHT22;23741;49.446;8.754;2023-09-30T01:39:22;20.30;65.40
37910;DHT22;23741;49.446;8.754;2023-09-30T01:44:46;20.30;65.70
37910;DHT22;23741;49.446;8.754;2023-09-30T01:46:59;20.20;65.80
37910;DHT22;23741;49.446;8.754;2023-09-30T01:51:53;20.20;66.20
37910;DHT22;23741;49.446;8.754;2023-09-30T01:54:37;20.20;66.40
37910;DHT22;23741;49.446;8.754;2023-09-30T01:59:30;20.20;66.10
37910;DHT22;23741;49.446;8.754;2023-09-30T02:02:31;20.20;66.20
37910;DHT22;23741;49.446;8.754;2023-09-30T02:10:17;20.20;66.70
37910;DHT22;23741;49.446;8.754;2023-09-30T02:13:01;20.20;66.40
37910;DHT22;23741;49.446;8.754;2023-09-30T02:22:06;20.20;66.20
37910;DHT22;23741;49.446;8.754;2023-09-30T02:28:54;20.20;66.70
37910;DHT22;23741;49.446;8.754;2023-09-30T02:31:56;20.30;66.70
37910;DHT22;23741;49.446;8.754;2023-09-30T02:37:28;20.20;66.50
37910;DHT22;23741;49.446;8.754;2023-09-30T02:39:37;20.20;66.20
37910;DHT22;23741;49.446;8.754;2023-09-30T02:42:03;20.20;66.30
37910;DHT22;23741;49.446;8.754;2023-09-30T02:44:24;20.20;66.70
37910;DHT22;23741;49.446;8.754;2023-09-30T02:47:07;20.30;66.60
37910;DHT22;23741;49.446;8.754;2023-09-30T02:49:21;20.20;67.30
37910;DHT22;23741;49.446;8.754;2023-09-30T02:51:44;20.20;66.40
37910;DHT22;23741;49.446;8.754;2023-09-30T02:54:10;20.20;66.50
37910;DHT22;23741;49.446;8.754;2023-09-30T02:56:35;20.20;66.50
37910;DHT22;23741;49.446;8.754;2023-09-30T03:00:01;20.20;66.40
37910;DHT22;23741;49.446;8.754;2023-09-30T03:09:30;20.20;66.10
37910;DHT22;23741;49.446;8.754;2023-09-30T03:11:50;20.10;66.00
37910;DHT22;23741;49.446;8.754;2023-09-30T03:14:32;20.10;66.00
37910;DHT22;23741;49.446;8.754;2023-09-30T03:16:35;20.10;66.00
37910;DHT22;23741;49.446;8.754;2023-09-30T03:19:00;20.10;66.00
37910;DHT22;23741;49.446;8.754;2023-09-30T03:21:12;20.10;66.30
37910;DHT22;23741;49.446;8.754;2023-09-30T03:23:32;20.00;66.30
37910;DHT22;23741;49.446;8.754;2023-09-30T03:25:58;20.00;66.00
37910;DHT22;23741;49.446;8.754;2023-09-30T03:28:16;20.00;66.10
37910;DHT22;23741;49.446;8.754;2023-09-30T03:30:55;19.90;65.90
37910;DHT22;23741;49.446;8.754;2023-09-30T03:33:14;19.90;65.90
37910;DHT22;23741;49.446;8.754;2023-09-30T03:35:19;19.90;65.60
37910;DHT22;23741;49.446;8.754;2023-09-30T03:40:04;19.90;65.90
37910;DHT22;23741;49.446;8.754;2023-09-30T03:42:51;19.80;65.90
37910;DHT22;23741;49.446;8.754;2023-09-30T03:48:47;19.80;66.30
37910;DHT22;23741;49.446;8.754;2023-09-30T03:51:19;19.80;66.30
37910;DHT22;23741;49.446;8.754;2023-09-30T03:53:31;19.70;65.90
37910;DHT22;23741;49.446;8.754;2023-09-30T03:55:48;19.70;66.10
37910;DHT22;23741;49.446;8.754;2023-09-30T03:57:59;19.60;66.20
37910;DHT22;23741;49.446;8.754;2023-09-30T04:00:29;19.60;66.10
37910;DHT22;23741;49.446;8.754;2023-09-30T04:03:04;19.60;66.10
37910;DHT22;23741;49.446;8.754;2023-09-30T04:05:24;19.60;66.30
37910;DHT22;23741;49.446;8.754;2023-09-30T04:07:32;19.50;66.10
37910;DHT22;23741;49.446;8.754;2023-09-30T04:09:54;19.50;66.40
37910;DHT22;23741;49.446;8.754;2023-09-30T04:12:05;19.50;66.20
37910;DHT22;23741;49.446;8.754;2023-09-30T04:14:33;19.50;66.40
37910;DHT22;23741;49.446;8.754;2023-09-30T04:16:48;19.50;66.50
37910;DHT22;23741;49.446;8.754;2023-09-30T04:19:04;19.40;66.60
37910;DHT22;23741;49.446;8.754;2023-09-30T04:21:40;19.40;66.20
37910;DHT22;23741;49.446;8.754;2023-09-30T04:23:54;19.40;66.20
37910;DHT22;23741;49.446;8.754;2023-09-30T04:26:31;19.30;66.20
37910;DHT22;23741;49.446;8.754;2023-09-30T04:29:03;19.30;66.20
37910;DHT22;23741;49.446;8.754;2023-09-30T04:31:17;19.30;66.20
37910;DHT22;23741;49.446;8.754;2023-09-30T04:33:50;19.30;66.40
37910;DHT22;23741;49.446;8.754;2023-09-30T04:36:06;19.20;66.30
37910;DHT22;23741;49.446;8.754;2023-09-30T04:38:16;19.20;66.10
37910;DHT22;23741;49.446;8.754;2023-09-30T04:40:43;19.20;66.10
37910;DHT22;23741;49.446;8.754;2023-09-30T04:42:50;19.20;66.30
37910;DHT22;23741;49.446;8.754;2023-09-30T04:45:17;19.20;66.80
37910;DHT22;23741;49.446;8.754;2023-09-30T04:47:36;19.20;66.60
37910;DHT22;23741;49.446;8.754;2023-09-30T04:50:29;19.20;67.50
37910;DHT22;23741;49.446;8.754;2023-09-30T04:55:32;19.20;67.00
37910;DHT22;23741;49.446;8.754;2023-09-30T04:57:57;19.20;67.00
37910;DHT22;23741;49.446;8.754;2023-09-30T05:00:19;19.20;66.80
37910;DHT22;23741;49.446;8.754;2023-09-30T05:02:30;19.20;67.10
37910;DHT22;23741;49.446;8.754;2023-09-30T05:04:53;19.20;67.40
37910;DHT22;23741;49.446;8.754;2023-09-30T05:06:55;19.20;67.40
37910;DHT22;23741;49.446;8.754;2023-09-30T05:09:07;19.20;67.40
37910;DHT22;23741;49.446;8.754;2023-09-30T05:11:47;19.20;67.30
37910;DHT22;23741;49.446;8.754;2023-09-30T05:14:12;19.20;67.20
37910;DHT22;23741;49.446;8.754;2023-09-30T05:16:19;19.20;67.50
37910;DHT22;23741;49.446;8.754;2023-09-30T05:18:29;19.20;67.80
37910;DHT22;23741;49.446;8.754;2023-09-30T05:21:04;19.20;67.70
37910;DHT22;23741;49.446;8.754;2023-09-30T05:23:26;19.20;67.40
37910;DHT22;23741;49.446;8.754;2023-09-30T05:26:10;19.20;67.80
37910;DHT22;23741;49.446;8.754;2023-09-30T05:28:31;19.20;67.80
37910;DHT22;23741;49.446;8.754;2023-09-30T05:30:46;19.20;68.00
37910;DHT22;23741;49.446;8.754;2023-09-30T05:33:19;19.20;67.80
37910;DHT22;23741;49.446;8.754;2023-09-30T05:38:46;19.20;68.00
37910;DHT22;23741;49.446;8.754;2023-09-30T05:41:01;19.20;68.00
37910;DHT22;23741;49.446;8.754;2023-09-30T05:49:22;19.20;68.00
37910;DHT22;23741;49.446;8.754;2023-09-30T05:54:22;19.20;67.80
37910;DHT22;23741;49.446;8.754;2023-09-30T05:59:45;19.20;67.90
37910;DHT22;23741;49.446;8.754;2023-09-30T06:08:03;19.30;67.70
37910;DHT22;23741;49.446;8.754;2023-09-30T06:13:28;19.20;67.90
37910;DHT22;23741;49.446;8.754;2023-09-30T06:16:15;19.20;67.50
37910;DHT22;23741;49.446;8.754;2023-09-30T06:18:44;19.20;67.90
37910;DHT22;23741;49.446;8.754;2023-09-30T06:21:17;19.20;67.80
37910;DHT22;23741;49.446;8.754;2023-09-30T06:23:45;19.20;67.80
37910;DHT22;23741;49.446;8.754;2023-09-30T06:28:53;19.20;67.90
37910;DHT22;23741;49.446;8.754;2023-09-30T06:31:39;19.20;67.70
37910;DHT22;23741;49.446;8.754;2023-09-30T06:34:38;19.20;68.60
37910;DHT22;23741;49.446;8.754;2023-09-30T06:37:02;19.20;68.00
37910;DHT22;23741;49.446;8.754;2023-09-30T06:39:30;19.20;67.90
37910;DHT22;23741;49.446;8.754;2023-09-30T06:41:35;19.20;68.00
37910;DHT22;23741;49.446;8.754;2023-09-30T06:44:05;19.20;68.00
37910;DHT22;23741;49.446;8.754;2023-09-30T06:46:21;19.10;68.10
37910;DHT22;23741;49.446;8.754;2023-09-30T06:49:00;19.20;67.80
37910;DHT22;23741;49.446;8.754;2023-09-30T06:51:07;19.20;67.60
37910;DHT22;23741;49.446;8.754;2023-09-30T06:53:25;19.20;67.50
37910;DHT22;23741;49.446;8.754;2023-09-30T06:55:43;19.20;67.70
37910;DHT22;23741;49.446;8.754;2023-09-30T06:57:54;19.20;67.40
37910;DHT22;23741;49.446;8.754;2023-09-30T07:00:07;19.20;67.20
37910;DHT22;23741;49.446;8.754;2023-09-30T07:02:20;19.20;67.20
37910;DHT22;23741;49.446;8.754;2023-09-30T07:11:37;19.20;67.00
37910;DHT22;23741;49.446;8.754;2023-09-30T07:17:28;19.20;66.80
37910;DHT22;23741;49.446;8.754;2023-09-30T07:19:56;19.20;66.70
37910;DHT22;23741;49.446;8.754;2023-09-30T07:22:04;19.20;67.00
37910;DHT22;23741;49.446;8.754;2023-09-30T07:24:14;19.20;66.80
37910;DHT22;23741;49.446;8.754;2023-09-30T07:26:34;19.20;66.70
37910;DHT22;23741;49.446;8.754;2023-09-30T07:29:24;19.20;66.70
37910;DHT22;23741;49.446;8.754;2023-09-30T07:32:05;19.30;67.00
37910;DHT22;23741;49.446;8.754;2023-09-30T07:34:56;19.30;67.00
37910;DHT22;23741;49.446;8.754;2023-09-30T07:37:27;19.30;67.00
37910;DHT22;23741;49.446;8.754;2023-09-30T07:42:14;19.30;67.00
37910;DHT22;23741;49.446;8.754;2023-09-30T07:44:23;19.30;67.20
37910;DHT22;23741;49.446;8.754;2023-09-30T07:49:26;19.30;67.00
37910;DHT22;23741;49.446;8.754;2023-09-30T07:55:09;19.40;67.10
37910;DHT22;23741;49.446;8.754;2023-09-30T07:57:35;19.40;66.80
37910;DHT22;23741;49.446;8.754;2023-09-30T08:00:19;19.50;66.80
37910;DHT22;23741;49.446;8.754;2023-09-30T08:02:49;19.50;66.80
37910;DHT22;23741;49.446;8.754;2023-09-30T08:05:02;19.50;66.50
37910;DHT22;23741;49.446;8.754;2023-09-30T08:07:48;19.60;66.70
37910;DHT22;23741;49.446;8.754;2023-09-30T08:10:10;19.60;66.50
37910;DHT22;23741;49.446;8.754;2023-09-30T08:12:31;19.60;66.40
37910;DHT22;23741;49.446;8.754;2023-09-30T08:14:56;19.60;66.30
37910;DHT22;23741;49.446;8.754;2023-09-30T08:17:06;19.70;66.60
37910;DHT22;23741;49.446;8.754;2023-09-30T08:19:36;19.70;66.20
37910;DHT22;23741;49.446;8.754;2023-09-30T08:21:48;19.70;66.20
37910;DHT22;23741;49.446;8.754;2023-09-30T08:24:20;19.70;66.20
37910;DHT22;23741;49.446;8.754;2023-09-30T08:26:40;19.80;66.10
37910;DHT22;23741;49.446;8.754;2023-09-30T08:29:01;19.80;66.00
37910;DHT22;23741;49.446;8.754;2023-09-30T08:31:11;19.90;66.00
37910;DHT22;23741;49.446;8.754;2023-09-30T08:33:28;19.90;66.00
37910;DHT22;23741;49.446;8.754;2023-09-30T08:35:55;19.90;66.00
37910;DHT22;23741;49.446;8.754;2023-09-30T08:38:02;20.00;66.10
37910;DHT22;23741;49.446;8.754;2023-09-30T08:40:13;20.00;66.10
37910;DHT22;23741;49.446;8.754;2023-09-30T08:45:18;20.00;66.00
37910;DHT22;23741;49.446;8.754;2023-09-30T08:47:43;20.10;66.10
37910;DHT22;23741;49.446;8.754;2023-09-30T08:49:53;20.10;66.50
37910;DHT22;23741;49.446;8.754;2023-09-30T08:52:14;20.20;66.90
37910;DHT22;23741;49.446;8.754;2023-09-30T08:54:21;20.20;66.90
37910;DHT22;23741;49.446;8.754;2023-09-30T08:56:36;20.20;66.90
37910;DHT22;23741;49.446;8.754;2023-09-30T08:58:55;20.30;66.80
37910;DHT22;23741;49.446;8.754;2023-09-30T09:01:12;20.40;66.80
37910;DHT22;23741;49.446;8.754;2023-09-30T09:03:23;20.50;66.70
37910;DHT22;23741;49.446;8.754;2023-09-30T09:08:09;20.50;66.40
37910;DHT22;23741;49.446;8.754;2023-09-30T09:10:22;20.60;66.20
37910;DHT22;23741;49.446;8.754;2023-09-30T09:12:26;20.70;66.10
37910;DHT22;23741;49.446;8.754;2023-09-30T09:14:50;20.70;65.70
37910;DHT22;23741;49.446;8.754;2023-09-30T09:17:12;20.80;65.50
37910;DHT22;23741;49.446;8.754;2023-09-30T09:19:18;20.80;65.50
37910;DHT22;23741;49.446;8.754;2023-09-30T09:21:31;20.80;65.40
37910;DHT22;23741;49.446;8.754;2023-09-30T09:28:33;21.00;65.00
37910;DHT22;23741;49.446;8.754;2023-09-30T09:30:55;21.00;65.00
37910;DHT22;23741;49.446;8.754;2023-09-30T09:33:03;21.00;64.90
37910;DHT22;23741;49.446;8.754;2023-09-30T09:35:09;21.10;65.00
37910;DHT22;23741;49.446;8.754;2023-09-30T09:37:31;21.20;65.00
37910;DHT22;23741;49.446;8.754;2023-09-30T09:39:35;21.20;64.90
37910;DHT22;23741;49.446;8.754;2023-09-30T09:41:53;21.10;64.80
37910;DHT22;23741;49.446;8.754;2023-09-30T09:44:00;21.20;64.80
37910;DHT22;23741;49.446;8.754;2023-09-30T09:46:11;21.30;64.60
37910;DHT22;23741;49.446;8.754;2023-09-30T09:48:26;21.30;64.50
37910;DHT22;23741;49.446;8.754;2023-09-30T09:50:41;21.40;64.70
37910;DHT22;23741;49.446;8.754;2023-09-30T09:52:53;21.40;64.60
37910;DHT22;23741;49.446;8.754;2023-09-30T09:55:10;21.40;64.30
37910;DHT22;23741;49.446;8.754;2023-09-30T09:57:17;21.50;64.30
37910;DHT22;23741;49.446;8.754;2023-09-30T09:59:29;21.60;64.40
37910;DHT22;23741;49.446;8.754;2023-09-30T10:01:42;21.60;64.10
37910;DHT22;23741;49.446;8.754;2023-09-30T10:03:52;21.60;64.00
37910;DHT22;23741;49.446;8.754;2023-09-30T10:06:13;21.70;64.10
37910;DHT22;23741;49.446;8.754;2023-09-30T10:08:29;21.70;64.10
37910;DHT22;23741;49.446;8.754;2023-09-30T10:10:40;21.70;63.70
37910;DHT22;23741;49.446;8.754;2023-09-30T10:12:59;21.80;63.20
37910;DHT22;23741;49.446;8.754;2023-09-30T10:15:33;21.80;62.20
37910;DHT22;23741;49.446;8.754;2023-09-30T10:20:08;21.90;62.40
37910;DHT22;23741;49.446;8.754;2023-09-30T10:24:32;21.90;62.70
37910;DHT22;23741;49.446;8.754;2023-09-30T10:26:41;21.90;62.10
37910;DHT22;23741;49.446;8.754;2023-09-30T10:28:46;21.90;62.00
37910;DHT22;23741;49.446;8.754;2023-09-30T10:33:38;21.90;62.60
37910;DHT22;23741;49.446;8.754;2023-09-30T10:36:15;21.90;62.80
37910;DHT22;23741;49.446;8.754;2023-09-30T10:38:41;22.00;62.70
37910;DHT22;23741;49.446;8.754;2023-09-30T10:40:46;22.00;62.80
37910;DHT22;23741;49.446;8.754;2023-09-30T10:42:53;22.10;62.90
37910;DHT22;23741;49.446;8.754;2023-09-30T10:45:15;22.20;62.90
37910;DHT22;23741;49.446;8.754;2023-09-30T10:47:39;22.20;62.80
37910;DHT22;23741;49.446;8.754;2023-09-30T10:49:47;22.30;62.80
37910;DHT22;23741;49.446;8.754;2023-09-30T10:51:53;22.40;62.10
37910;DHT22;23741;49.446;8.754;2023-09-30T10:54:05;22.50;62.10
37910;DHT22;23741;49.446;8.754;2023-09-30T10:56:32;22.50;61.90
37910;DHT22;23741;49.446;8.754;2023-09-30T11:01:11;22.70;60.50
37910;DHT22;23741;49.446;8.754;2023-09-30T11:03:24;22.80;61.50
37910;DHT22;23741;49.446;8.754;2023-09-30T11:05:56;22.90;60.80
37910;DHT22;23741;49.446;8.754;2023-09-30T11:08:25;22.90;60.50
37910;DHT22;23741;49.446;8.754;2023-09-30T11:10:51;23.00;60.40
37910;DHT22;23741;49.446;8.754;2023-09-30T11:13:13;23.00;59.90
37910;DHT22;23741;49.446;8.754;2023-09-30T11:16:02;23.10;60.10
37910;DHT22;23741;49.446;8.754;2023-09-30T11:18:26;23.10;60.40
37910;DHT22;23741;49.446;8.754;2023-09-30T11:20:43;23.20;60.60
37910;DHT22;23741;49.446;8.754;2023-09-30T11:25:34;23.20;59.90
37910;DHT22;23741;49.446;8.754;2023-09-30T11:27:40;23.30;60.10
37910;DHT22;23741;49.446;8.754;2023-09-30T11:29:56;23.30;60.50
37910;DHT22;23741;49.446;8.754;2023-09-30T11:32:12;23.40;60.00
37910;DHT22;23741;49.446;8.754;2023-09-30T11:34:35;23.50;59.40
37910;DHT22;23741;49.446;8.754;2023-09-30T11:37:08;23.60;59.50
37910;DHT22;23741;49.446;8.754;2023-09-30T11:39:44;23.60;59.50
37910;DHT22;23741;49.446;8.754;2023-09-30T11:41:50;23.70;59.20
37910;DHT22;23741;49.446;8.754;2023-09-30T11:44:15;23.70;59.50
37910;DHT22;23741;49.446;8.754;2023-09-30T11:46:23;23.70;59.60
37910;DHT22;23741;49.446;8.754;2023-09-30T11:49:02;23.80;59.10
37910;DHT22;23741;49.446;8.754;2023-09-30T11:51:26;23.80;58.80
37910;DHT22;23741;49.446;8.754;2023-09-30T11:54:02;23.90;58.70
37910;DHT22;23741;49.446;8.754;2023-09-30T12:00:42;23.80;57.50
37910;DHT22;23741;49.446;8.754;2023-09-30T12:09:48;23.80;57.20
37910;DHT22;23741;49.446;8.754;2023-09-30T12:12:07;23.80;56.70
37910;DHT22;23741;49.446;8.754;2023-09-30T12:14:39;23.80;57.70
37910;DHT22;23741;49.446;8.754;2023-09-30T12:17:12;23.80;57.10
37910;DHT22;23741;49.446;8.754;2023-09-30T12:20:09;23.80;57.50
37910;DHT22;23741;49.446;8.754;2023-09-30T12:22:37;23.80;57.20
37910;DHT22;23741;49.446;8.754;2023-09-30T12:24:59;23.80;57.40
37910;DHT22;23741;49.446;8.754;2023-09-30T12:30:04;23.80;56.60
37910;DHT22;23741;49.446;8.754;2023-09-30T12:32:25;23.80;57.40
37910;DHT22;23741;49.446;8.754;2023-09-30T12:35:08;23.80;57.80
37910;DHT22;23741;49.446;8.754;2023-09-30T12:37:43;23.80;58.10
37910;DHT22;23741;49.446;8.754;2023-09-30T12:40:18;23.80;57.60
37910;DHT22;23741;49.446;8.754;2023-09-30T12:42:22;23.80;56.50
37910;DHT22;23741;49.446;8.754;2023-09-30T12:44:29;23.80;56.70
37910;DHT22;23741;49.446;8.754;2023-09-30T12:46:45;23.80;57.20
37910;DHT22;23741;49.446;8.754;2023-09-30T12:49:07;23.80;57.60
37910;DHT22;23741;49.446;8.754;2023-09-30T12:51:21;23.90;57.70
37910;DHT22;23741;49.446;8.754;2023-09-30T12:53:33;23.90;57.60
37910;DHT22;23741;49.446;8.754;2023-09-30T12:56:10;24.00;58.00
37910;DHT22;23741;49.446;8.754;2023-09-30T12:58:26;24.00;57.90
37910;DHT22;23741;49.446;8.754;2023-09-30T13:00:39;24.10;58.00
37910;DHT22;23741;49.446;8.754;2023-09-30T13:03:04;24.10;57.90
37910;DHT22;23741;49.446;8.754;2023-09-30T13:05:14;24.20;57.40
37910;DHT22;23741;49.446;8.754;2023-09-30T13:07:24;24.20;56.50
37910;DHT22;23741;49.446;8.754;2023-09-30T13:09:53;24.30;55.00
37910;DHT22;23741;49.446;8.754;2023-09-30T13:12:31;24.30;56.00
37910;DHT22;23741;49.446;8.754;2023-09-30T13:15:10;24.30;56.80
37910;DHT22;23741;49.446;8.754;2023-09-30T13:17:25;24.30;55.20
37910;DHT22;23741;49.446;8.754;2023-09-30T13:20:36;24.30;56.00
37910;DHT22;23741;49.446;8.754;2023-09-30T13:22:44;24.30;55.80
37910;DHT22;23741;49.446;8.754;2023-09-30T13:24:55;24.40;56.30
37910;DHT22;23741;49.446;8.754;2023-09-30T13:27:04;24.40;56.40
37910;DHT22;23741;49.446;8.754;2023-09-30T13:29:08;24.40;55.20
37910;DHT22;23741;49.446;8.754;2023-09-30T13:31:28;24.40;55.50
37910;DHT22;23741;49.446;8.754;2023-09-30T13:33:35;24.40;56.10
37910;DHT22;23741;49.446;8.754;2023-09-30T13:35:51;24.50;56.60
37910;DHT22;23741;49.446;8.754;2023-09-30T13:38:05;24.40;54.70
37910;DHT22;23741;49.446;8.754;2023-09-30T13:40:09;24.40;54.70
37910;DHT22;23741;49.446;8.754;2023-09-30T13:42:22;24.50;55.60
37910;DHT22;23741;49.446;8.754;2023-09-30T13:44:40;24.50;54.90
37910;DHT22;23741;49.446;8.754;2023-09-30T13:46:47;24.50;55.80
37910;DHT22;23741;49.446;8.754;2023-09-30T13:48:57;24.60;56.00
37910;DHT22;23741;49.446;8.754;2023-09-30T13:51:07;24.60;54.10
37910;DHT22;23741;49.446;8.754;2023-09-30T13:53:12;24.70;55.60
37910;DHT22;23741;49.446;8.754;2023-09-30T13:55:17;24.70;55.90
37910;DHT22;23741;49.446;8.754;2023-09-30T13:57:22;24.70;56.20
37910;DHT22;23741;49.446;8.754;2023-09-30T13:59:33;24.70;56.20
37910;DHT22;23741;49.446;8.754;2023-09-30T14:01:43;24.80;56.60
37910;DHT22;23741;49.446;8.754;2023-09-30T14:03:48;24.80;56.30
37910;DHT22;23741;49.446;8.754;2023-09-30T14:06:08;24.90;56.00
37910;DHT22;23741;49.446;8.754;2023-09-30T14:08:16;24.90;56.10
37910;DHT22;23741;49.446;8.754;2023-09-30T14:10:27;24.90;56.00
37910;DHT22;23741;49.446;8.754;2023-09-30T14:12:41;25.00;55.80
37910;DHT22;23741;49.446;8.754;2023-09-30T14:14:47;24.90;55.40
37910;DHT22;23741;49.446;8.754;2023-09-30T14:16:58;24.90;55.60
37910;DHT22;23741;49.446;8.754;2023-09-30T14:19:18;24.90;55.80
37910;DHT22;23741;49.446;8.754;2023-09-30T14:21:48;25.00;55.40
37910;DHT22;23741;49.446;8.754;2023-09-30T14:27:42;25.00;56.00
37910;DHT22;23741;49.446;8.754;2023-09-30T14:51:40;25.30;55.60
37910;DHT22;23741;49.446;8.754;2023-09-30T14:57:46;25.30;54.60
37910;DHT22;23741;49.446;8.754;2023-09-30T15:00:44;25.30;55.00
37910;DHT22;23741;49.446;8.754;2023-09-30T15:03:26;25.30;55.10
37910;DHT22;23741;49.446;8.754;2023-09-30T15:05:44;25.30;55.30
37910;DHT22;23741;49.446;8.754;2023-09-30T15:07:53;25.30;55.20
37910;DHT22;23741;49.446;8.754;2023-09-30T15:10:02;25.20;54.90
37910;DHT22;23741;49.446;8.754;2023-09-30T15:12:08;25.20;54.90
37910;DHT22;23741;49.446;8.754;2023-09-30T15:14:27;25.20;55.00
37910;DHT22;23741;49.446;8.754;2023-09-30T15:16:35;25.20;55.10
37910;DHT22;23741;49.446;8.754;2023-09-30T15:18:38;25.20;55.30
37910;DHT22;23741;49.446;8.754;2023-09-30T15:20:43;25.10;55.10
37910;DHT22;23741;49.446;8.754;2023-09-30T15:22:53;25.00;54.40
37910;DHT22;23741;49.446;8.754;2023-09-30T15:25:28;25.00;54.70
37910;DHT22;23741;49.446;8.754;2023-09-30T15:28:13;25.00;55.10
37910;DHT22;23741;49.446;8.754;2023-09-30T15:34:06;24.80;55.50
37910;DHT22;23741;49.446;8.754;2023-09-30T15:36:15;24.70;55.70
37910;DHT22;23741;49.446;8.754;2023-09-30T15:38:52;24.60;55.60
37910;DHT22;23741;49.446;8.754;2023-09-30T15:41:48;24.60;55.70
37910;DHT22;23741;49.446;8.754;2023-09-30T15:44:07;24.40;55.70
37910;DHT22;23741;49.446;8.754;2023-09-30T15:46:28;24.30;55.80
37910;DHT22;23741;49.446;8.754;2023-09-30T15:48:35;24.30;55.80
37910;DHT22;23741;49.446;8.754;2023-09-30T15:50:47;24.20;55.90
37910;DHT22;23741;49.446;8.754;2023-09-30T15:53:03;24.10;56.10
37910;DHT22;23741;49.446;8.754;2023-09-30T15:55:14;24.10;56.10
37910;DHT22;23741;49.446;8.754;2023-09-30T15:57:36;24.00;56.20
37910;DHT22;23741;49.446;8.754;2023-09-30T15:59:54;23.90;56.30
37910;DHT22;23741;49.446;8.754;2023-09-30T16:02:09;23.80;56.40
37910;DHT22;23741;49.446;8.754;2023-09-30T16:04:47;23.80;56.50
37910;DHT22;23741;49.446;8.754;2023-09-30T16:07:22;23.70;56.60
37910;DHT22;23741;49.446;8.754;2023-09-30T16:09:30;23.60;56.60
37910;DHT22;23741;49.446;8.754;2023-09-30T16:11:36;23.60;56.70
37910;DHT22;23741;49.446;8.754;2023-09-30T16:16:23;23.40;56.70
37910;DHT22;23741;49.446;8.754;2023-09-30T16:18:32;23.30;56.70
37910;DHT22;23741;49.446;8.754;2023-09-30T16:20:39;23.30;56.80
37910;DHT22;23741;49.446;8.754;2023-09-30T16:23:09;23.20;56.90
37910;DHT22;23741;49.446;8.754;2023-09-30T16:25:35;23.10;57.10
37910;DHT22;23741;49.446;8.754;2023-09-30T16:27:48;23.10;57.20
37910;DHT22;23741;49.446;8.754;2023-09-30T16:30:08;23.00;57.20
37910;DHT22;23741;49.446;8.754;2023-09-30T16:32:19;22.90;57.30
37910;DHT22;23741;49.446;8.754;2023-09-30T16:34:42;22.90;57.30
37910;DHT22;23741;49.446;8.754;2023-09-30T16:37:05;22.80;57.40
37910;DHT22;23741;49.446;8.754;2023-09-30T16:39:10;22.80;57.50
37910;DHT22;23741;49.446;8.754;2023-09-30T16:41:23;22.70;57.50
37910;DHT22;23741;49.446;8.754;2023-09-30T16:46:21;22.60;57.40
37910;DHT22;23741;49.446;8.754;2023-09-30T16:48:36;22.50;57.80
37910;DHT22;23741;49.446;8.754;2023-09-30T16:50:55;22.50;57.50
37910;DHT22;23741;49.446;8.754;2023-09-30T16:53:18;22.40;57.60
37910;DHT22;23741;49.446;8.754;2023-09-30T16:55:46;22.30;57.60
37910;DHT22;23741;49.446;8.754;2023-09-30T16:58:07;22.20;57.60
37910;DHT22;23741;49.446;8.754;2023-09-30T17:00:47;22.20;57.60
37910;DHT22;23741;49.446;8.754;2023-09-30T17:03:15;22.20;57.70
37910;DHT22;23741;49.446;8.754;2023-09-30T17:05:54;22.10;57.80
37910;DHT22;23741;49.446;8.754;2023-09-30T17:08:33;22.00;57.80
37910;DHT22;23741;49.446;8.754;2023-09-30T17:10:45;21.90;57.90
37910;DHT22;23741;49.446;8.754;2023-09-30T17:13:04;21.80;57.80
37910;DHT22;23741;49.446;8.754;2023-09-30T17:15:10;21.80;57.90
37910;DHT22;23741;49.446;8.754;2023-09-30T17:17:28;21.70;58.00
37910;DHT22;23741;49.446;8.754;2023-09-30T17:19:38;21.70;58.10
37910;DHT22;23741;49.446;8.754;2023-09-30T17:21:56;21.60;58.20
37910;DHT22;23741;49.446;8.754;2023-09-30T17:24:16;21.60;58.20
37910;DHT22;23741;49.446;8.754;2023-09-30T17:26:30;21.50;58.30
37910;DHT22;23741;49.446;8.754;2023-09-30T17:28:53;21.40;58.20
37910;DHT22;23741;49.446;8.754;2023-09-30T17:31:09;21.40;58.20
37910;DHT22;23741;49.446;8.754;2023-09-30T17:33:24;21.30;58.30
37910;DHT22;23741;49.446;8.754;2023-09-30T17:35:39;21.20;58.40
37910;DHT22;23741;49.446;8.754;2023-09-30T17:37:51;21.20;58.50
37910;DHT22;23741;49.446;8.754;2023-09-30T17:39:59;21.10;58.60
37910;DHT22;23741;49.446;8.754;2023-09-30T17:42:16;21.10;58.60
37910;DHT22;23741;49.446;8.754;2023-09-30T17:44:36;21.00;58.50
37910;DHT22;23741;49.446;8.754;2023-09-30T17:47:07;21.00;58.70
37910;DHT22;23741;49.446;8.754;2023-09-30T17:49:12;20.90;58.80
37910;DHT22;23741;49.446;8.754;2023-09-30T17:51:19;20.80;59.00
37910;DHT22;23741;49.446;8.754;2023-09-30T17:53:50;20.80;59.00
37910;DHT22;23741;49.446;8.754;2023-09-30T17:56:14;20.70;58.90
37910;DHT22;23741;49.446;8.754;2023-09-30T17:58:21;20.70;59.00
37910;DHT22;23741;49.446;8.754;2023-09-30T18:00:29;20.60;59.10
37910;DHT22;23741;49.446;8.754;2023-09-30T18:02:33;20.50;59.10
37910;DHT22;23741;49.446;8.754;2023-09-30T18:04:47;20.50;59.20
37910;DHT22;23741;49.446;8.754;2023-09-30T18:06:58;20.40;59.20
37910;DHT22;23741;49.446;8.754;2023-09-30T18:09:21;20.40;59.30